createdAt,value
2023-03-12T00:01:58.967Z,10.50
2023-03-12T00:04:26.285Z,10.63
2023-03-12T00:06:53.111Z,10.55
2023-03-12T00:09:19.960Z,10.31
2023-03-12T00:14:42.269Z,10.59
2023-03-12T00:17:10.101Z,10.89
2023-03-12T00:19:36.973Z,10.55
2023-03-12T00:22:04.527Z,10.44
2023-03-12T00:24:33.867Z,11.14
2023-03-12T00:27:07.688Z,10.56
2023-03-12T00:29:34.490Z,10.82
2023-03-12T00:34:29.961Z,10.87
2023-03-12T00:36:56.792Z,11.65
2023-03-12T00:39:24.133Z,12.64
2023-03-12T00:41:58.255Z,13.24
2023-03-12T00:44:24.802Z,13.63
2023-03-12T00:46:52.269Z,14.07
2023-03-12T00:49:18.929Z,14.17
2023-03-12T00:51:46.205Z,15.19
2023-03-12T00:54:13.016Z,16.13
2023-03-12T00:56:39.617Z,16.03
2023-03-12T00:59:06.491Z,16.29
2023-03-12T01:01:33.101Z,16.67
2023-03-12T01:03:59.792Z,17.61
2023-03-12T01:06:26.427Z,17.94
2023-03-12T01:08:53.039Z,17.61
2023-03-12T01:11:22.701Z,18.80
2023-03-12T01:13:49.934Z,18.28
2023-03-12T01:16:24.080Z,18.32
2023-03-12T01:18:52.946Z,18.12
2023-03-12T01:21:21.767Z,18.16
2023-03-12T01:23:48.304Z,17.68
2023-03-12T01:26:15.154Z,18.25
2023-03-12T01:28:41.910Z,18.13
2023-03-12T01:31:08.846Z,17.63
2023-03-12T01:33:37.035Z,17.33
2023-03-12T01:36:03.610Z,17.50
2023-03-12T01:41:22.803Z,17.25
2023-03-12T01:43:49.394Z,16.42
2023-03-12T01:46:16.031Z,16.30
2023-03-12T01:48:43.294Z,16.12
2023-03-12T01:51:17.502Z,15.47
2023-03-12T01:53:44.855Z,15.27
2023-03-12T01:56:11.389Z,14.62
2023-03-12T01:58:40.306Z,14.41
2023-03-12T02:01:06.862Z,14.54
2023-03-12T02:03:34.472Z,14.13
2023-03-12T02:06:01.410Z,13.44
2023-03-12T02:08:35.103Z,13.92
2023-03-12T02:11:02.005Z,13.26
2023-03-12T02:13:37.290Z,13.59
2023-03-12T02:16:11.948Z,12.87
2023-03-12T02:18:38.497Z,12.34
2023-03-12T02:21:06.778Z,12.22
2023-03-12T02:23:33.354Z,13.89
2023-03-12T02:25:59.929Z,14.84
2023-03-12T02:28:28.247Z,17.34
2023-03-12T02:30:55.456Z,17.24
2023-03-12T02:33:22.058Z,16.43
2023-03-12T02:35:51.779Z,14.57
2023-03-12T02:38:18.527Z,14.68
2023-03-12T02:40:45.076Z,15.52
2023-03-12T02:43:12.708Z,15.76
2023-03-12T02:45:46.477Z,17.25
2023-03-12T02:48:13.750Z,16.89
2023-03-12T02:50:42.363Z,17.31
2023-03-12T02:53:08.916Z,17.24
2023-03-12T02:55:36.464Z,16.61
2023-03-12T02:58:03.286Z,16.79
2023-03-12T03:00:30.699Z,17.02
2023-03-12T03:02:57.711Z,16.62
2023-03-12T03:05:24.189Z,16.53
2023-03-12T03:07:52.476Z,15.79
2023-03-12T03:10:19.068Z,16.19
2023-03-12T03:12:46.377Z,16.22
2023-03-12T03:15:13.972Z,15.65
2023-03-12T03:17:40.830Z,15.79
2023-03-12T03:20:09.241Z,15.73
2023-03-12T03:25:09.186Z,14.18
2023-03-12T03:27:35.876Z,14.89
2023-03-12T03:30:03.352Z,14.13
2023-03-12T03:32:33.196Z,13.93
2023-03-12T03:35:00.251Z,13.74
2023-03-12T03:37:27.614Z,13.48
2023-03-12T03:39:55.992Z,13.89
2023-03-12T03:42:22.591Z,13.96
2023-03-12T03:44:50.606Z,12.59
2023-03-12T03:47:17.228Z,11.72
2023-03-12T03:49:44.118Z,13.36
2023-03-12T03:52:12.814Z,13.57
2023-03-12T03:54:39.431Z,13.57
2023-03-12T04:00:06.189Z,12.09
2023-03-12T04:05:37.193Z,13.45
2023-03-12T04:08:04.007Z,12.27
2023-03-12T04:10:31.683Z,12.18
2023-03-12T04:12:58.388Z,13.25
2023-03-12T04:15:25.806Z,12.92
2023-03-12T04:17:54.302Z,12.78
2023-03-12T04:20:21.690Z,13.09
2023-03-12T04:22:55.700Z,14.02
2023-03-12T04:25:22.306Z,11.68
2023-03-12T04:27:49.167Z,11.55
2023-03-12T04:30:17.219Z,10.63
2023-03-12T04:32:51.921Z,10.63
2023-03-12T04:35:18.554Z,10.61
2023-03-12T04:37:45.386Z,9.97
2023-03-12T04:40:11.951Z,10.18
2023-03-12T04:42:45.882Z,9.82
2023-03-12T04:45:13.217Z,9.55
2023-03-12T04:47:40.866Z,10.37
2023-03-12T04:50:07.719Z,10.13
2023-03-12T04:52:34.469Z,10.26
2023-03-12T04:55:04.760Z,10.40
2023-03-12T04:57:33.212Z,10.73
2023-03-12T04:59:59.792Z,10.62
2023-03-12T05:02:28.810Z,10.57
2023-03-12T05:04:56.187Z,11.06
2023-03-12T05:07:22.737Z,11.01
2023-03-12T05:09:49.586Z,11.35
2023-03-12T05:12:17.199Z,11.25
2023-03-12T05:14:46.600Z,12.04
2023-03-12T05:17:13.485Z,11.06
2023-03-12T05:19:42.257Z,10.39
2023-03-12T05:22:08.781Z,10.93
2023-03-12T05:24:37.046Z,9.69
2023-03-12T05:27:04.608Z,9.81
2023-03-12T05:29:31.993Z,8.92
2023-03-12T05:32:06.096Z,8.25
2023-03-12T05:34:35.774Z,7.74
2023-03-12T05:37:04.206Z,7.57
2023-03-12T05:39:30.834Z,7.51
2023-03-12T05:41:58.152Z,7.87
2023-03-12T05:44:25.100Z,8.87
2023-03-12T05:46:52.435Z,9.71
2023-03-12T05:49:26.377Z,9.40
2023-03-12T05:51:54.670Z,9.86
2023-03-12T05:54:28.483Z,9.96
2023-03-12T05:56:55.354Z,10.05
2023-03-12T05:59:21.855Z,10.51
2023-03-12T06:01:50.203Z,10.38
2023-03-12T06:04:16.784Z,10.27
2023-03-12T06:06:45.893Z,9.17
2023-03-12T06:09:12.603Z,9.14
2023-03-12T06:11:42.087Z,8.89
2023-03-12T06:14:10.314Z,8.25
2023-03-12T06:16:37.194Z,9.12
2023-03-12T06:19:04.269Z,9.66
2023-03-12T06:21:38.293Z,9.84
2023-03-12T06:24:05.100Z,9.38
2023-03-12T06:26:33.959Z,9.87
2023-03-12T06:29:00.806Z,9.05
2023-03-12T06:31:27.720Z,9.12
2023-03-12T06:34:01.818Z,9.36
2023-03-12T06:36:28.665Z,9.41
2023-03-12T06:38:57.199Z,9.71
2023-03-12T06:41:24.770Z,10.01
2023-03-12T06:43:58.903Z,10.06
2023-03-12T06:46:28.004Z,9.90
2023-03-12T06:48:55.614Z,9.97
2023-03-12T06:51:22.724Z,10.56
2023-03-12T06:53:50.678Z,10.78
2023-03-12T06:56:17.501Z,10.98
2023-03-12T06:58:44.908Z,10.76
2023-03-12T07:01:12.557Z,11.64
2023-03-12T07:03:39.351Z,12.03
2023-03-12T07:06:06.230Z,11.95
2023-03-12T07:08:33.806Z,12.53
2023-03-12T07:11:02.347Z,12.97
2023-03-12T07:13:29.291Z,12.78
2023-03-12T07:15:56.229Z,13.59
2023-03-12T07:18:25.038Z,13.24
2023-03-12T07:20:51.589Z,11.95
2023-03-12T07:23:18.426Z,10.88
2023-03-12T07:25:45.056Z,10.59
2023-03-12T07:28:12.597Z,10.20
2023-03-12T07:30:46.545Z,9.90
2023-03-12T07:33:14.142Z,8.83
2023-03-12T07:35:41.093Z,8.75
2023-03-12T07:38:08.467Z,8.32
2023-03-12T07:40:37.211Z,6.66
2023-03-12T07:43:04.037Z,5.74
2023-03-12T07:45:38.191Z,5.90
2023-03-12T07:50:33.340Z,5.27
2023-03-12T07:53:00.194Z,5.60
2023-03-12T07:55:27.195Z,5.60
2023-03-12T07:57:53.921Z,5.23
2023-03-12T08:00:20.524Z,4.62
2023-03-12T08:02:48.194Z,4.88
2023-03-12T08:05:15.221Z,5.33
2023-03-12T08:07:41.861Z,4.30
2023-03-12T08:10:08.622Z,4.54
2023-03-12T08:12:36.025Z,3.63
2023-03-12T08:15:02.593Z,3.41
2023-03-12T08:17:36.760Z,3.34
2023-03-12T08:20:03.559Z,3.47
2023-03-12T08:22:33.369Z,3.26
2023-03-12T08:25:00.636Z,3.21
2023-03-12T08:27:28.066Z,3.42
2023-03-12T08:29:56.885Z,3.24
2023-03-12T08:32:24.146Z,3.41
2023-03-12T08:34:50.982Z,3.40
2023-03-12T08:37:24.770Z,3.43
2023-03-12T08:39:53.190Z,3.45
2023-03-12T08:42:24.714Z,3.46
2023-03-12T08:44:52.070Z,3.48
2023-03-12T08:50:07.305Z,3.67
2023-03-12T08:52:34.096Z,3.48
2023-03-12T08:55:00.629Z,3.49
2023-03-12T08:57:28.399Z,3.45
2023-03-12T08:59:59.251Z,3.34
2023-03-12T09:04:57.494Z,3.41
2023-03-12T09:07:24.314Z,3.41
2023-03-12T09:09:51.189Z,3.46
2023-03-12T09:12:19.447Z,3.09
2023-03-12T09:15:04.316Z,2.98
2023-03-12T09:17:32.447Z,2.64
2023-03-12T09:19:59.076Z,2.81
2023-03-12T09:22:25.999Z,2.70
2023-03-12T09:24:53.347Z,2.89
2023-03-12T09:27:20.581Z,2.80
2023-03-12T09:29:59.435Z,2.80
2023-03-12T09:32:33.674Z,2.52
2023-03-12T09:35:00.748Z,2.59
2023-03-12T09:37:28.400Z,2.20
2023-03-12T09:39:56.373Z,2.21
2023-03-12T09:45:09.080Z,2.93
2023-03-12T09:47:35.625Z,2.89
2023-03-12T09:50:02.318Z,2.55
2023-03-12T09:52:36.438Z,2.51
2023-03-12T09:55:03.036Z,2.52
2023-03-12T09:57:30.008Z,2.50
2023-03-12T09:59:56.973Z,2.51
2023-03-12T10:02:23.907Z,2.45
2023-03-12T10:04:59.474Z,2.69
2023-03-12T10:07:27.822Z,2.61
2023-03-12T10:09:54.951Z,2.75
2023-03-12T10:12:26.830Z,2.51
2023-03-12T10:14:54.546Z,2.86
2023-03-12T10:17:22.811Z,2.57
2023-03-12T10:19:53.095Z,1.99
2023-03-12T10:22:20.705Z,1.82
2023-03-12T10:24:48.255Z,1.72
2023-03-12T10:27:14.991Z,2.05
2023-03-12T10:33:05.952Z,2.23
2023-03-12T10:35:36.024Z,1.93
2023-03-12T10:38:03.946Z,1.69
2023-03-12T10:40:30.588Z,1.73
2023-03-12T10:42:57.388Z,1.79
2023-03-12T10:45:24.380Z,1.77
2023-03-12T10:47:51.760Z,2.14
2023-03-12T10:50:22.037Z,1.33
2023-03-12T10:52:53.987Z,1.32
2023-03-12T10:55:20.782Z,1.56
2023-03-12T10:57:51.057Z,1.40
2023-03-12T11:00:17.627Z,1.38
2023-03-12T11:02:45.091Z,1.41
2023-03-12T11:05:13.402Z,1.18
2023-03-12T11:07:41.002Z,1.39
2023-03-12T11:10:08.588Z,1.45
2023-03-12T11:12:35.169Z,1.42
2023-03-12T11:15:05.113Z,1.51
2023-03-12T11:17:37.890Z,1.17
2023-03-12T11:20:09.418Z,0.99
2023-03-12T11:25:27.048Z,1.62
2023-03-12T11:27:57.328Z,1.54
2023-03-12T11:30:26.869Z,1.05
2023-03-12T11:32:53.766Z,1.05
2023-03-12T11:35:22.495Z,1.29
2023-03-12T11:37:49.663Z,1.07
2023-03-12T11:40:16.561Z,1.36
2023-03-12T11:42:45.221Z,1.27
2023-03-12T11:45:15.172Z,1.46
2023-03-12T11:47:47.913Z,1.66
2023-03-12T11:50:17.732Z,1.75
2023-03-12T11:52:46.460Z,1.18
2023-03-12T11:55:16.617Z,2.27
2023-03-12T11:57:45.440Z,1.38
2023-03-12T12:00:12.987Z,1.36
2023-03-12T12:02:41.308Z,1.22
2023-03-12T12:05:10.366Z,1.13
2023-03-12T12:07:37.938Z,1.39
2023-03-12T12:10:11.934Z,2.15
2023-03-12T12:12:40.245Z,1.38
2023-03-12T12:15:08.935Z,1.38
2023-03-12T12:17:35.598Z,1.18
2023-03-12T12:20:02.491Z,1.23
2023-03-12T12:22:32.119Z,1.32
2023-03-12T12:30:47.842Z,1.62
2023-03-12T12:33:15.553Z,1.89
2023-03-12T12:35:42.215Z,1.85
2023-03-12T12:38:13.343Z,1.66
2023-03-12T12:40:40.279Z,1.49
2023-03-12T13:18:41.270Z,1.86
2023-03-12T13:21:39.630Z,1.92
2023-03-12T13:24:10.006Z,1.78
2023-03-12T13:29:39.501Z,1.96
2023-03-12T13:32:07.032Z,1.74
2023-03-12T13:37:54.039Z,1.46
2023-03-12T13:40:21.680Z,1.53
2023-03-12T13:45:34.255Z,1.61
2023-03-12T13:48:01.729Z,1.41
2023-03-12T13:50:30.404Z,1.48
2023-03-12T13:52:57.117Z,1.76
2023-03-12T13:55:24.711Z,1.34
2023-03-12T13:57:53.081Z,1.45
2023-03-12T14:00:20.395Z,1.61
2023-03-12T14:08:27.705Z,1.62
2023-03-12T14:14:01.872Z,1.52
2023-03-12T14:16:29.503Z,1.44
2023-03-12T14:18:56.502Z,1.44
2023-03-12T14:21:24.116Z,1.39
2023-03-12T14:23:52.340Z,1.28
2023-03-12T14:26:18.916Z,1.51
2023-03-12T14:28:48.424Z,1.44
2023-03-12T14:31:15.155Z,1.27
2023-03-12T14:36:59.736Z,1.73
2023-03-12T14:39:26.550Z,1.78
2023-03-12T14:41:55.420Z,1.60
2023-03-12T14:44:23.007Z,1.36
2023-03-12T14:46:49.912Z,1.55
2023-03-12T14:49:19.607Z,1.57
2023-03-12T14:52:05.529Z,1.93
2023-03-12T14:54:41.292Z,1.90
2023-03-12T14:57:10.323Z,1.80
2023-03-12T14:59:44.892Z,2.09
2023-03-12T15:02:13.850Z,2.10
2023-03-12T15:04:41.727Z,1.83
2023-03-12T15:07:11.214Z,1.59
2023-03-12T15:09:47.839Z,1.57
2023-03-12T15:12:15.443Z,1.49
2023-03-12T15:14:45.487Z,1.51
2023-03-12T15:17:17.124Z,1.68
2023-03-12T15:19:49.051Z,1.59
2023-03-12T15:22:19.081Z,1.18
2023-03-12T15:24:46.900Z,1.76
2023-03-12T15:27:18.086Z,1.38
2023-03-12T15:29:45.808Z,1.35
2023-03-12T15:32:30.356Z,1.73
2023-03-12T15:34:59.555Z,1.53
2023-03-12T15:37:28.066Z,1.61
2023-03-12T15:39:55.075Z,1.37
2023-03-12T15:42:26.911Z,1.51
2023-03-12T15:44:54.769Z,1.57
2023-03-12T15:50:30.881Z,1.34
2023-03-12T15:52:58.237Z,1.47
2023-03-12T15:55:27.019Z,1.71
2023-03-12T15:58:00.802Z,1.75
2023-03-12T16:00:27.676Z,1.62
2023-03-12T16:02:58.293Z,2.30
2023-03-12T16:05:25.012Z,1.71
2023-03-12T16:10:49.651Z,1.53
2023-03-12T16:16:16.058Z,1.75
2023-03-12T16:18:46.300Z,4.33
2023-03-12T16:21:13.726Z,2.40
2023-03-12T16:23:41.208Z,1.65
2023-03-12T16:26:10.266Z,1.31
2023-03-12T16:28:37.035Z,11.10
2023-03-12T16:31:03.909Z,1.74
2023-03-12T16:33:30.424Z,1.58
2023-03-12T16:35:57.196Z,1.38
2023-03-12T16:38:23.896Z,6.70
2023-03-12T16:40:55.755Z,3.45
2023-03-12T16:43:23.232Z,10.87
2023-03-12T16:45:50.121Z,4.10
2023-03-12T16:48:17.210Z,17.73
2023-03-12T16:50:45.744Z,13.26
2023-03-12T16:53:12.326Z,12.78
2023-03-12T16:55:41.337Z,9.90
2023-03-12T16:58:07.929Z,3.01
2023-03-12T17:00:34.475Z,2.88
2023-03-12T17:03:01.054Z,2.60
2023-03-12T17:05:27.654Z,7.44
2023-03-12T17:07:54.496Z,1.83
2023-03-12T17:10:21.312Z,1.48
2023-03-12T17:12:48.572Z,1.65
2023-03-12T17:15:15.146Z,1.63
2023-03-12T17:17:41.801Z,1.95
2023-03-12T17:20:08.442Z,1.63
2023-03-12T17:22:35.013Z,1.43
2023-03-12T17:25:01.902Z,1.36
2023-03-12T17:27:29.528Z,1.64
2023-03-12T17:29:56.392Z,4.80
2023-03-12T17:32:23.291Z,38.29
2023-03-12T17:34:49.872Z,7.93
2023-03-12T17:37:16.444Z,11.04
2023-03-12T17:39:44.964Z,3.05
2023-03-12T17:42:12.506Z,8.97
2023-03-12T17:44:39.263Z,3.54
2023-03-12T17:47:08.052Z,2.31
2023-03-12T17:49:34.969Z,2.14
2023-03-12T17:52:01.838Z,2.53
2023-03-12T17:54:28.582Z,5.14
2023-03-12T17:56:55.328Z,3.08
2023-03-12T17:59:21.768Z,2.88
2023-03-12T18:01:48.790Z,2.03
2023-03-12T18:04:16.376Z,2.10
2023-03-12T18:09:29.400Z,2.11
2023-03-12T18:11:58.181Z,4.47
2023-03-12T18:14:32.096Z,2.65
2023-03-12T18:16:59.445Z,2.38
2023-03-12T18:19:26.834Z,2.30
2023-03-12T18:21:53.887Z,2.17
2023-03-12T18:24:20.625Z,2.06
2023-03-12T18:26:49.887Z,2.21
2023-03-12T18:29:16.682Z,2.35
2023-03-12T18:31:45.436Z,2.19
2023-03-12T18:34:11.960Z,1.91
2023-03-12T18:36:46.336Z,2.00
2023-03-12T18:39:12.899Z,2.03
2023-03-12T18:41:42.088Z,2.28
2023-03-12T18:44:09.163Z,2.13
2023-03-12T18:46:37.944Z,2.27
2023-03-12T18:49:06.941Z,2.18
2023-03-12T18:51:40.952Z,2.50
2023-03-12T18:54:07.514Z,2.37
2023-03-12T18:56:36.276Z,2.03
2023-03-12T18:59:06.297Z,2.20
2023-03-12T19:01:33.684Z,2.15
2023-03-12T19:04:00.435Z,2.39
2023-03-12T19:06:48.145Z,2.53
2023-03-12T19:09:16.849Z,2.08
2023-03-12T19:11:44.397Z,2.82
2023-03-12T19:14:13.207Z,2.53
2023-03-12T19:16:41.241Z,2.25
2023-03-12T19:19:08.423Z,2.10
2023-03-12T19:21:38.729Z,2.59
2023-03-12T19:24:11.797Z,2.51
2023-03-12T19:26:39.904Z,3.04
2023-03-12T19:29:10.005Z,3.50
2023-03-12T19:31:41.443Z,3.66
2023-03-12T19:34:09.113Z,3.55
2023-03-12T19:36:36.122Z,3.68
2023-03-12T19:39:09.111Z,2.89
2023-03-12T19:41:38.648Z,2.43
2023-03-12T19:44:05.566Z,2.46
2023-03-12T19:46:33.675Z,2.20
2023-03-12T19:49:05.992Z,2.39
2023-03-12T19:51:52.392Z,1.96
2023-03-12T19:54:22.527Z,1.79
2023-03-12T19:59:33.616Z,1.75
2023-03-12T20:02:07.169Z,1.78
2023-03-12T20:04:48.649Z,1.75
2023-03-12T20:07:25.334Z,1.86
2023-03-12T20:09:52.252Z,1.77
2023-03-12T20:12:19.734Z,1.80
2023-03-12T20:14:53.722Z,1.91
2023-03-12T20:17:21.694Z,1.83
2023-03-12T20:19:54.869Z,1.89
2023-03-12T20:28:18.432Z,2.14
2023-03-12T20:30:50.941Z,1.76
2023-03-12T20:33:17.810Z,1.77
2023-03-12T20:35:44.673Z,1.96
2023-03-12T20:38:11.751Z,1.88
2023-03-12T20:40:38.687Z,1.84
2023-03-12T20:43:08.841Z,1.98
2023-03-12T20:45:35.797Z,2.08
2023-03-12T20:48:06.676Z,1.88
2023-03-12T20:50:33.252Z,2.17
2023-03-12T20:53:00.157Z,2.04
2023-03-12T20:55:28.140Z,2.09
2023-03-12T20:57:55.981Z,2.16
2023-03-12T21:00:22.905Z,1.93
2023-03-12T21:02:59.809Z,1.69
2023-03-12T21:05:27.064Z,1.89
2023-03-12T21:07:54.344Z,2.05
2023-03-12T21:10:21.437Z,1.98
2023-03-12T21:12:48.119Z,1.99
2023-03-12T21:15:14.770Z,1.87
2023-03-12T21:17:41.394Z,2.03
2023-03-12T21:20:09.688Z,2.14
2023-03-12T21:22:37.056Z,2.23
2023-03-12T21:25:03.802Z,2.17
2023-03-12T21:27:38.289Z,2.11
2023-03-12T21:30:20.214Z,1.99
2023-03-12T21:32:49.452Z,2.06
2023-03-12T21:35:18.356Z,2.37
2023-03-12T21:37:45.236Z,2.38
2023-03-12T21:40:12.065Z,2.10
2023-03-12T21:42:38.634Z,2.26
2023-03-12T21:45:05.449Z,1.94
2023-03-12T21:47:35.065Z,2.04
2023-03-12T21:50:01.583Z,1.87
2023-03-12T21:52:28.100Z,1.91
2023-03-12T21:54:54.944Z,1.98
2023-03-12T21:57:21.612Z,2.01
2023-03-12T21:59:49.155Z,2.26
2023-03-12T22:02:16.110Z,2.22
2023-03-12T22:04:42.996Z,2.17
2023-03-12T22:07:09.608Z,2.17
2023-03-12T22:09:37.149Z,2.17
2023-03-12T22:12:04.870Z,1.93
2023-03-12T22:14:31.425Z,1.90
2023-03-12T22:16:57.987Z,1.81
2023-03-12T22:19:27.645Z,1.72
2023-03-12T22:21:55.322Z,1.99
2023-03-12T22:24:21.894Z,1.84
2023-03-12T22:26:52.743Z,1.63
2023-03-12T22:29:19.278Z,1.99
2023-03-12T22:31:46.054Z,1.88
2023-03-12T22:34:14.638Z,2.00
2023-03-12T22:36:41.452Z,1.89
2023-03-12T22:39:09.868Z,1.91
2023-03-12T22:41:36.710Z,1.86
2023-03-12T22:44:03.205Z,1.85
2023-03-12T22:46:30.057Z,2.15
2023-03-12T22:48:56.893Z,2.16
2023-03-12T22:51:24.665Z,2.22
2023-03-12T22:53:53.625Z,2.14
2023-03-12T22:56:20.166Z,2.30
2023-03-12T22:58:46.704Z,2.66
2023-03-12T23:01:13.255Z,3.07
2023-03-12T23:03:39.814Z,2.67
2023-03-12T23:06:06.377Z,2.83
2023-03-12T23:08:32.979Z,2.86
2023-03-12T23:11:02.046Z,2.61
2023-03-12T23:13:28.830Z,2.68
2023-03-12T23:15:55.513Z,2.88
2023-03-12T23:18:22.112Z,2.61
2023-03-12T23:20:48.628Z,3.10
2023-03-12T23:23:15.262Z,2.80
2023-03-12T23:25:42.004Z,3.25
2023-03-12T23:28:08.826Z,3.26
2023-03-12T23:30:35.508Z,3.90
2023-03-12T23:33:02.148Z,4.39
2023-03-12T23:35:28.874Z,4.14
2023-03-12T23:37:55.586Z,3.94
2023-03-12T23:40:22.129Z,3.55
2023-03-12T23:42:49.712Z,3.25
2023-03-12T23:45:16.598Z,3.46
2023-03-12T23:47:43.408Z,3.40
2023-03-12T23:50:10.232Z,3.31
2023-03-12T23:52:37.686Z,3.31
2023-03-12T23:55:04.280Z,3.14
2023-03-12T23:57:31.006Z,3.18
2023-03-12T23:59:57.667Z,3.03
